sensor_id;sensor_type;location;lat;lon;timestamp;P1;durP1;ratioP1;P2;durP2;ratioP2
51034;SDS011;37062;52.546;13.230;2023-07-02T00:00:11;2.35;;;1.70;;
51034;SDS011;37062;52.546;13.230;2023-07-02T00:02:39;2.38;;;2.00;;
51034;SDS011;37062;52.546;13.230;2023-07-02T00:05:08;1.52;;;1.42;;
51034;SDS011;37062;52.546;13.230;2023-07-02T00:07:36;1.50;;;1.40;;
51034;SDS011;37062;52.546;13.230;2023-07-02T00:10:06;1.95;;;1.50;;
51034;SDS011;37062;52.546;13.230;2023-07-02T00:12:34;1.40;;;1.30;;
51034;SDS011;37062;52.546;13.230;2023-07-02T00:15:03;1.50;;;1.40;;
51034;SDS011;37062;52.546;13.230;2023-07-02T00:17:32;1.85;;;1.55;;
51034;SDS011;37062;52.546;13.230;2023-07-02T00:20:00;3.10;;;1.50;;
51034;SDS011;37062;52.546;13.230;2023-07-02T00:22:35;2.92;;;1.50;;
51034;SDS011;37062;52.546;13.230;2023-07-02T00:25:03;1.40;;;1.30;;
51034;SDS011;37062;52.546;13.230;2023-07-02T00:27:33;5.10;;;1.45;;
51034;SDS011;37062;52.546;13.230;2023-07-02T00:30:02;2.58;;;1.50;;
51034;SDS011;37062;52.546;13.230;2023-07-02T00:32:30;1.85;;;1.60;;
51034;SDS011;37062;52.546;13.230;2023-07-02T00:34:59;1.63;;;1.48;;
51034;SDS011;37062;52.546;13.230;2023-07-02T00:37:27;1.80;;;1.67;;
51034;SDS011;37062;52.546;13.230;2023-07-02T00:39:56;1.92;;;1.50;;
51034;SDS011;37062;52.546;13.230;2023-07-02T00:42:26;1.75;;;1.65;;
51034;SDS011;37062;52.546;13.230;2023-07-02T00:44:56;2.20;;;1.75;;
51034;SDS011;37062;52.546;13.230;2023-07-02T00:47:29;2.10;;;1.70;;
51034;SDS011;37062;52.546;13.230;2023-07-02T00:49:58;1.80;;;1.70;;
51034;SDS011;37062;52.546;13.230;2023-07-02T00:52:28;3.63;;;1.80;;
51034;SDS011;37062;52.546;13.230;2023-07-02T00:54:57;2.72;;;2.17;;
51034;SDS011;37062;52.546;13.230;2023-07-02T00:57:27;2.40;;;2.20;;
51034;SDS011;37062;52.546;13.230;2023-07-02T00:59:56;1.83;;;1.73;;
51034;SDS011;37062;52.546;13.230;2023-07-02T01:02:27;2.50;;;2.28;;
51034;SDS011;37062;52.546;13.230;2023-07-02T01:04:56;2.90;;;2.70;;
51034;SDS011;37062;52.546;13.230;2023-07-02T01:07:27;2.55;;;2.35;;
51034;SDS011;37062;52.546;13.230;2023-07-02T01:09:55;2.92;;;2.50;;
51034;SDS011;37062;52.546;13.230;2023-07-02T01:12:25;3.40;;;2.75;;
51034;SDS011;37062;52.546;13.230;2023-07-02T01:14:56;3.53;;;2.67;;
51034;SDS011;37062;52.546;13.230;2023-07-02T01:17:30;3.30;;;2.97;;
51034;SDS011;37062;52.546;13.230;2023-07-02T01:20:08;2.78;;;2.58;;
51034;SDS011;37062;52.546;13.230;2023-07-02T01:22:37;3.65;;;3.08;;
51034;SDS011;37062;52.546;13.230;2023-07-02T01:25:06;5.47;;;3.05;;
51034;SDS011;37062;52.546;13.230;2023-07-02T01:27:35;4.70;;;3.42;;
51034;SDS011;37062;52.546;13.230;2023-07-02T01:30:07;3.70;;;3.40;;
51034;SDS011;37062;52.546;13.230;2023-07-02T01:32:37;3.50;;;2.80;;
51034;SDS011;37062;52.546;13.230;2023-07-02T01:35:08;4.25;;;3.25;;
51034;SDS011;37062;52.546;13.230;2023-07-02T01:37:36;5.93;;;3.33;;
51034;SDS011;37062;52.546;13.230;2023-07-02T01:40:05;5.10;;;3.40;;
51034;SDS011;37062;52.546;13.230;2023-07-02T01:42:35;5.25;;;2.83;;
51034;SDS011;37062;52.546;13.230;2023-07-02T01:45:04;3.22;;;3.00;;
51034;SDS011;37062;52.546;13.230;2023-07-02T01:47:32;3.60;;;3.10;;
51034;SDS011;37062;52.546;13.230;2023-07-02T01:50:01;3.60;;;3.30;;
51034;SDS011;37062;52.546;13.230;2023-07-02T01:52:32;4.82;;;3.65;;
51034;SDS011;37062;52.546;13.230;2023-07-02T01:55:00;4.10;;;3.70;;
51034;SDS011;37062;52.546;13.230;2023-07-02T01:57:30;4.43;;;3.90;;
51034;SDS011;37062;52.546;13.230;2023-07-02T01:59:58;3.83;;;3.40;;
51034;SDS011;37062;52.546;13.230;2023-07-02T02:02:40;5.18;;;3.78;;
51034;SDS011;37062;52.546;13.230;2023-07-02T02:05:09;4.38;;;3.97;;
51034;SDS011;37062;52.546;13.230;2023-07-02T02:07:39;4.28;;;3.88;;
51034;SDS011;37062;52.546;13.230;2023-07-02T02:10:07;5.35;;;3.53;;
51034;SDS011;37062;52.546;13.230;2023-07-02T02:12:36;3.95;;;3.65;;
51034;SDS011;37062;52.546;13.230;2023-07-02T02:15:06;6.03;;;4.20;;
51034;SDS011;37062;52.546;13.230;2023-07-02T02:17:34;6.80;;;4.53;;
51034;SDS011;37062;52.546;13.230;2023-07-02T02:20:04;6.65;;;3.63;;
51034;SDS011;37062;52.546;13.230;2023-07-02T02:22:34;4.28;;;3.80;;
51034;SDS011;37062;52.546;13.230;2023-07-02T02:25:05;3.53;;;3.22;;
51034;SDS011;37062;52.546;13.230;2023-07-02T02:27:34;4.78;;;3.88;;
51034;SDS011;37062;52.546;13.230;2023-07-02T02:30:02;4.75;;;3.50;;
51034;SDS011;37062;52.546;13.230;2023-07-02T02:32:33;3.88;;;3.22;;
51034;SDS011;37062;52.546;13.230;2023-07-02T02:35:02;4.65;;;3.25;;
51034;SDS011;37062;52.546;13.230;2023-07-02T02:37:32;3.38;;;3.08;;
51034;SDS011;37062;52.546;13.230;2023-07-02T02:40:02;3.45;;;3.08;;
51034;SDS011;37062;52.546;13.230;2023-07-02T02:42:33;4.47;;;3.50;;
51034;SDS011;37062;52.546;13.230;2023-07-02T02:45:02;4.85;;;3.20;;
51034;SDS011;37062;52.546;13.230;2023-07-02T02:47:30;4.82;;;3.55;;
51034;SDS011;37062;52.546;13.230;2023-07-02T02:49:58;4.03;;;3.22;;
51034;SDS011;37062;52.546;13.230;2023-07-02T02:52:27;4.30;;;3.10;;
51034;SDS011;37062;52.546;13.230;2023-07-02T02:54:55;5.40;;;3.00;;
51034;SDS011;37062;52.546;13.230;2023-07-02T02:57:24;2.67;;;2.42;;
51034;SDS011;37062;52.546;13.230;2023-07-02T02:59:53;3.67;;;3.38;;
51034;SDS011;37062;52.546;13.230;2023-07-02T03:02:21;2.72;;;2.50;;
51034;SDS011;37062;52.546;13.230;2023-07-02T03:04:49;3.47;;;3.08;;
51034;SDS011;37062;52.546;13.230;2023-07-02T03:07:19;3.58;;;2.92;;
51034;SDS011;37062;52.546;13.230;2023-07-02T03:09:47;5.22;;;3.10;;
51034;SDS011;37062;52.546;13.230;2023-07-02T03:12:15;2.63;;;2.40;;
51034;SDS011;37062;52.546;13.230;2023-07-02T03:14:45;4.13;;;2.60;;
51034;SDS011;37062;52.546;13.230;2023-07-02T03:17:18;6.68;;;3.10;;
51034;SDS011;37062;52.546;13.230;2023-07-02T03:19:46;2.95;;;2.75;;
51034;SDS011;37062;52.546;13.230;2023-07-02T03:22:14;4.20;;;3.35;;
51034;SDS011;37062;52.546;13.230;2023-07-02T03:24:42;3.53;;;2.90;;
51034;SDS011;37062;52.546;13.230;2023-07-02T03:27:12;3.58;;;3.13;;
51034;SDS011;37062;52.546;13.230;2023-07-02T03:29:40;3.13;;;2.92;;
51034;SDS011;37062;52.546;13.230;2023-07-02T03:32:10;3.58;;;3.28;;
51034;SDS011;37062;52.546;13.230;2023-07-02T03:34:38;3.22;;;2.97;;
51034;SDS011;37062;52.546;13.230;2023-07-02T03:37:07;3.67;;;3.10;;
51034;SDS011;37062;52.546;13.230;2023-07-02T03:39:35;5.03;;;3.00;;
51034;SDS011;37062;52.546;13.230;2023-07-02T03:42:04;3.58;;;3.03;;
51034;SDS011;37062;52.546;13.230;2023-07-02T03:44:33;3.42;;;3.13;;
51034;SDS011;37062;52.546;13.230;2023-07-02T03:47:01;4.22;;;3.05;;
51034;SDS011;37062;52.546;13.230;2023-07-02T03:49:31;5.55;;;3.25;;
51034;SDS011;37062;52.546;13.230;2023-07-02T03:51:59;3.58;;;2.60;;
51034;SDS011;37062;52.546;13.230;2023-07-02T03:54:27;4.18;;;3.08;;
51034;SDS011;37062;52.546;13.230;2023-07-02T03:56:55;4.28;;;3.13;;
51034;SDS011;37062;52.546;13.230;2023-07-02T03:59:23;3.80;;;2.60;;
51034;SDS011;37062;52.546;13.230;2023-07-02T04:01:51;3.72;;;2.90;;
51034;SDS011;37062;52.546;13.230;2023-07-02T04:04:19;5.00;;;2.30;;
51034;SDS011;37062;52.546;13.230;2023-07-02T04:06:49;2.65;;;2.45;;
51034;SDS011;37062;52.546;13.230;2023-07-02T04:09:17;3.92;;;2.42;;
51034;SDS011;37062;52.546;13.230;2023-07-02T04:11:46;5.03;;;2.58;;
51034;SDS011;37062;52.546;13.230;2023-07-02T04:14:14;2.83;;;2.35;;
51034;SDS011;37062;52.546;13.230;2023-07-02T04:16:44;4.32;;;2.53;;
51034;SDS011;37062;52.546;13.230;2023-07-02T04:19:12;2.30;;;2.10;;
51034;SDS011;37062;52.546;13.230;2023-07-02T04:21:40;4.43;;;2.38;;
51034;SDS011;37062;52.546;13.230;2023-07-02T04:24:10;3.03;;;2.30;;
51034;SDS011;37062;52.546;13.230;2023-07-02T04:26:39;2.80;;;1.80;;
51034;SDS011;37062;52.546;13.230;2023-07-02T04:29:29;4.28;;;2.00;;
51034;SDS011;37062;52.546;13.230;2023-07-02T04:31:57;5.93;;;2.40;;
51034;SDS011;37062;52.546;13.230;2023-07-02T04:34:25;2.53;;;1.90;;
51034;SDS011;37062;52.546;13.230;2023-07-02T04:36:53;2.65;;;2.03;;
51034;SDS011;37062;52.546;13.230;2023-07-02T04:39:23;3.20;;;2.00;;
51034;SDS011;37062;52.546;13.230;2023-07-02T04:41:51;2.70;;;2.05;;
51034;SDS011;37062;52.546;13.230;2023-07-02T04:44:19;6.07;;;2.50;;
51034;SDS011;37062;52.546;13.230;2023-07-02T04:46:56;2.28;;;1.92;;
51034;SDS011;37062;52.546;13.230;2023-07-02T04:49:24;2.90;;;2.22;;
51034;SDS011;37062;52.546;13.230;2023-07-02T04:51:53;3.40;;;1.83;;
51034;SDS011;37062;52.546;13.230;2023-07-02T04:54:23;3.47;;;2.13;;
51034;SDS011;37062;52.546;13.230;2023-07-02T04:56:51;3.22;;;1.92;;
51034;SDS011;37062;52.546;13.230;2023-07-02T04:59:20;2.03;;;1.90;;
51034;SDS011;37062;52.546;13.230;2023-07-02T05:01:48;2.03;;;1.83;;
51034;SDS011;37062;52.546;13.230;2023-07-02T05:04:16;5.15;;;2.00;;
51034;SDS011;37062;52.546;13.230;2023-07-02T05:06:45;3.17;;;2.17;;
51034;SDS011;37062;52.546;13.230;2023-07-02T05:09:13;5.80;;;1.95;;
51034;SDS011;37062;52.546;13.230;2023-07-02T05:11:42;4.32;;;1.90;;
51034;SDS011;37062;52.546;13.230;2023-07-02T05:14:10;3.00;;;1.95;;
51034;SDS011;37062;52.546;13.230;2023-07-02T05:16:39;4.47;;;2.00;;
51034;SDS011;37062;52.546;13.230;2023-07-02T05:19:07;2.30;;;1.67;;
51034;SDS011;37062;52.546;13.230;2023-07-02T05:21:35;4.70;;;2.10;;
51034;SDS011;37062;52.546;13.230;2023-07-02T05:24:04;4.32;;;2.28;;
51034;SDS011;37062;52.546;13.230;2023-07-02T05:26:33;3.10;;;2.30;;
51034;SDS011;37062;52.546;13.230;2023-07-02T05:29:03;3.58;;;1.88;;
51034;SDS011;37062;52.546;13.230;2023-07-02T05:31:32;3.72;;;1.80;;
51034;SDS011;37062;52.546;13.230;2023-07-02T05:34:01;3.75;;;2.30;;
51034;SDS011;37062;52.546;13.230;2023-07-02T05:36:30;2.50;;;1.90;;
51034;SDS011;37062;52.546;13.230;2023-07-02T05:38:58;3.83;;;2.00;;
51034;SDS011;37062;52.546;13.230;2023-07-02T05:41:26;4.25;;;2.13;;
51034;SDS011;37062;52.546;13.230;2023-07-02T05:43:57;3.33;;;2.25;;
51034;SDS011;37062;52.546;13.230;2023-07-02T05:46:26;3.90;;;2.03;;
51034;SDS011;37062;52.546;13.230;2023-07-02T05:48:55;3.65;;;1.85;;
51034;SDS011;37062;52.546;13.230;2023-07-02T05:51:23;3.15;;;1.80;;
51034;SDS011;37062;52.546;13.230;2023-07-02T05:53:52;3.55;;;2.10;;
51034;SDS011;37062;52.546;13.230;2023-07-02T05:56:20;5.25;;;2.05;;
51034;SDS011;37062;52.546;13.230;2023-07-02T05:58:48;3.30;;;2.10;;
51034;SDS011;37062;52.546;13.230;2023-07-02T06:01:17;2.83;;;1.95;;
51034;SDS011;37062;52.546;13.230;2023-07-02T06:03:48;3.78;;;1.95;;
51034;SDS011;37062;52.546;13.230;2023-07-02T06:06:17;6.03;;;2.00;;
51034;SDS011;37062;52.546;13.230;2023-07-02T06:08:45;2.25;;;1.75;;
51034;SDS011;37062;52.546;13.230;2023-07-02T06:11:13;3.08;;;1.80;;
51034;SDS011;37062;52.546;13.230;2023-07-02T06:13:42;3.75;;;2.00;;
51034;SDS011;37062;52.546;13.230;2023-07-02T06:16:10;4.18;;;2.38;;
51034;SDS011;37062;52.546;13.230;2023-07-02T06:18:38;2.33;;;1.90;;
51034;SDS011;37062;52.546;13.230;2023-07-02T06:21:09;2.78;;;1.95;;
51034;SDS011;37062;52.546;13.230;2023-07-02T06:23:40;5.07;;;2.10;;
51034;SDS011;37062;52.546;13.230;2023-07-02T06:26:09;4.32;;;2.30;;
51034;SDS011;37062;52.546;13.230;2023-07-02T06:28:38;3.08;;;2.10;;
51034;SDS011;37062;52.546;13.230;2023-07-02T06:31:06;3.30;;;2.17;;
51034;SDS011;37062;52.546;13.230;2023-07-02T06:33:37;2.97;;;2.00;;
51034;SDS011;37062;52.546;13.230;2023-07-02T06:36:06;5.25;;;2.47;;
51034;SDS011;37062;52.546;13.230;2023-07-02T06:38:39;4.13;;;1.85;;
51034;SDS011;37062;52.546;13.230;2023-07-02T06:41:07;3.97;;;2.20;;
51034;SDS011;37062;52.546;13.230;2023-07-02T06:43:36;6.00;;;2.20;;
51034;SDS011;37062;52.546;13.230;2023-07-02T06:46:04;3.15;;;1.90;;
51034;SDS011;37062;52.546;13.230;2023-07-02T06:48:32;3.58;;;1.90;;
51034;SDS011;37062;52.546;13.230;2023-07-02T06:51:00;3.75;;;2.20;;
51034;SDS011;37062;52.546;13.230;2023-07-02T06:53:29;2.72;;;1.88;;
51034;SDS011;37062;52.546;13.230;2023-07-02T06:55:58;2.70;;;1.95;;
51034;SDS011;37062;52.546;13.230;2023-07-02T06:58:26;2.55;;;1.80;;
51034;SDS011;37062;52.546;13.230;2023-07-02T07:00:54;3.20;;;1.92;;
51034;SDS011;37062;52.546;13.230;2023-07-02T07:03:23;3.70;;;2.10;;
51034;SDS011;37062;52.546;13.230;2023-07-02T07:05:51;4.80;;;2.30;;
51034;SDS011;37062;52.546;13.230;2023-07-02T07:08:19;6.15;;;2.58;;
51034;SDS011;37062;52.546;13.230;2023-07-02T07:10:49;4.95;;;2.20;;
51034;SDS011;37062;52.546;13.230;2023-07-02T07:13:19;4.28;;;2.22;;
51034;SDS011;37062;52.546;13.230;2023-07-02T07:15:47;2.80;;;2.17;;
51034;SDS011;37062;52.546;13.230;2023-07-02T07:18:16;5.80;;;2.50;;
51034;SDS011;37062;52.546;13.230;2023-07-02T07:20:45;3.83;;;2.30;;
51034;SDS011;37062;52.546;13.230;2023-07-02T07:23:14;3.75;;;2.50;;
51034;SDS011;37062;52.546;13.230;2023-07-02T07:25:43;3.78;;;2.42;;
51034;SDS011;37062;52.546;13.230;2023-07-02T07:28:11;4.50;;;2.42;;
51034;SDS011;37062;52.546;13.230;2023-07-02T07:30:43;3.17;;;2.13;;
51034;SDS011;37062;52.546;13.230;2023-07-02T07:33:12;3.63;;;2.58;;
51034;SDS011;37062;52.546;13.230;2023-07-02T07:35:40;4.10;;;2.30;;
51034;SDS011;37062;52.546;13.230;2023-07-02T07:38:08;6.18;;;2.55;;
51034;SDS011;37062;52.546;13.230;2023-07-02T07:40:36;3.08;;;2.28;;
51034;SDS011;37062;52.546;13.230;2023-07-02T07:43:04;5.68;;;2.83;;
51034;SDS011;37062;52.546;13.230;2023-07-02T07:45:32;6.20;;;2.40;;
51034;SDS011;37062;52.546;13.230;2023-07-02T07:48:02;5.95;;;2.78;;
51034;SDS011;37062;52.546;13.230;2023-07-02T07:50:31;3.97;;;3.20;;
51034;SDS011;37062;52.546;13.230;2023-07-02T07:52:59;3.88;;;2.58;;
51034;SDS011;37062;52.546;13.230;2023-07-02T07:55:27;3.67;;;2.65;;
51034;SDS011;37062;52.546;13.230;2023-07-02T07:57:56;3.83;;;2.75;;
51034;SDS011;37062;52.546;13.230;2023-07-02T08:00:24;2.50;;;2.20;;
51034;SDS011;37062;52.546;13.230;2023-07-02T08:02:53;4.82;;;2.55;;
51034;SDS011;37062;52.546;13.230;2023-07-02T08:05:23;2.83;;;2.28;;
51034;SDS011;37062;52.546;13.230;2023-07-02T08:07:52;3.08;;;2.17;;
51034;SDS011;37062;52.546;13.230;2023-07-02T08:10:21;3.30;;;2.30;;
51034;SDS011;37062;52.546;13.230;2023-07-02T08:12:50;3.75;;;2.40;;
51034;SDS011;37062;52.546;13.230;2023-07-02T08:15:19;2.88;;;2.47;;
51034;SDS011;37062;52.546;13.230;2023-07-02T08:17:47;5.82;;;2.58;;
51034;SDS011;37062;52.546;13.230;2023-07-02T08:20:16;3.28;;;2.33;;
51034;SDS011;37062;52.546;13.230;2023-07-02T08:22:45;4.38;;;2.60;;
51034;SDS011;37062;52.546;13.230;2023-07-02T08:25:14;4.97;;;2.55;;
51034;SDS011;37062;52.546;13.230;2023-07-02T08:27:43;4.43;;;2.63;;
51034;SDS011;37062;52.546;13.230;2023-07-02T08:30:11;4.72;;;2.85;;
51034;SDS011;37062;52.546;13.230;2023-07-02T08:32:40;3.65;;;2.78;;
51034;SDS011;37062;52.546;13.230;2023-07-02T08:35:08;3.67;;;2.47;;
51034;SDS011;37062;52.546;13.230;2023-07-02T08:37:36;9.50;;;4.43;;
51034;SDS011;37062;52.546;13.230;2023-07-02T08:40:16;4.45;;;2.90;;
51034;SDS011;37062;52.546;13.230;2023-07-02T08:42:45;5.03;;;3.30;;
51034;SDS011;37062;52.546;13.230;2023-07-02T08:45:14;6.47;;;3.47;;
51034;SDS011;37062;52.546;13.230;2023-07-02T08:47:43;10.02;;;4.57;;
51034;SDS011;37062;52.546;13.230;2023-07-02T08:50:12;7.05;;;3.05;;
51034;SDS011;37062;52.546;13.230;2023-07-02T08:52:41;10.23;;;3.53;;
51034;SDS011;37062;52.546;13.230;2023-07-02T08:55:11;5.25;;;3.22;;
51034;SDS011;37062;52.546;13.230;2023-07-02T08:57:41;5.35;;;3.70;;
51034;SDS011;37062;52.546;13.230;2023-07-02T09:00:18;7.15;;;3.60;;
51034;SDS011;37062;52.546;13.230;2023-07-02T09:02:47;4.53;;;3.63;;
51034;SDS011;37062;52.546;13.230;2023-07-02T09:05:15;8.27;;;4.00;;
51034;SDS011;37062;52.546;13.230;2023-07-02T09:07:44;7.63;;;3.67;;
51034;SDS011;37062;52.546;13.230;2023-07-02T09:10:24;30.67;;;14.45;;
51034;SDS011;37062;52.546;13.230;2023-07-02T09:13:05;5.68;;;3.67;;
51034;SDS011;37062;52.546;13.230;2023-07-02T09:15:36;4.95;;;3.45;;
51034;SDS011;37062;52.546;13.230;2023-07-02T09:18:17;7.78;;;4.20;;
51034;SDS011;37062;52.546;13.230;2023-07-02T09:20:46;6.43;;;3.67;;
51034;SDS011;37062;52.546;13.230;2023-07-02T09:23:18;6.30;;;4.18;;
51034;SDS011;37062;52.546;13.230;2023-07-02T09:25:46;8.05;;;4.88;;
51034;SDS011;37062;52.546;13.230;2023-07-02T09:28:16;6.65;;;4.22;;
51034;SDS011;37062;52.546;13.230;2023-07-02T09:30:50;7.50;;;3.78;;
51034;SDS011;37062;52.546;13.230;2023-07-02T09:33:19;9.07;;;4.65;;
51034;SDS011;37062;52.546;13.230;2023-07-02T09:35:47;9.93;;;4.60;;
51034;SDS011;37062;52.546;13.230;2023-07-02T09:38:18;8.60;;;4.60;;
51034;SDS011;37062;52.546;13.230;2023-07-02T09:40:48;7.53;;;4.70;;
51034;SDS011;37062;52.546;13.230;2023-07-02T09:43:20;8.18;;;4.78;;
51034;SDS011;37062;52.546;13.230;2023-07-02T09:45:50;9.88;;;5.15;;
51034;SDS011;37062;52.546;13.230;2023-07-02T09:48:21;10.98;;;5.63;;
51034;SDS011;37062;52.546;13.230;2023-07-02T09:50:53;10.30;;;5.90;;
51034;SDS011;37062;52.546;13.230;2023-07-02T09:53:22;14.60;;;6.72;;
51034;SDS011;37062;52.546;13.230;2023-07-02T09:55:50;12.90;;;6.18;;
51034;SDS011;37062;52.546;13.230;2023-07-02T09:58:21;13.60;;;6.70;;
51034;SDS011;37062;52.546;13.230;2023-07-02T10:00:49;12.73;;;6.40;;
51034;SDS011;37062;52.546;13.230;2023-07-02T10:03:27;13.50;;;5.90;;
51034;SDS011;37062;52.546;13.230;2023-07-02T10:06:04;10.18;;;5.57;;
51034;SDS011;37062;52.546;13.230;2023-07-02T10:08:33;11.75;;;6.28;;
51034;SDS011;37062;52.546;13.230;2023-07-02T10:11:08;9.73;;;5.72;;
51034;SDS011;37062;52.546;13.230;2023-07-02T10:13:38;9.85;;;5.28;;
51034;SDS011;37062;52.546;13.230;2023-07-02T10:16:07;11.13;;;5.30;;
51034;SDS011;37062;52.546;13.230;2023-07-02T10:18:36;12.65;;;5.80;;
51034;SDS011;37062;52.546;13.230;2023-07-02T10:21:13;12.13;;;5.68;;
51034;SDS011;37062;52.546;13.230;2023-07-02T10:23:42;10.57;;;5.05;;
51034;SDS011;37062;52.546;13.230;2023-07-02T10:26:13;10.40;;;5.47;;
51034;SDS011;37062;52.546;13.230;2023-07-02T10:28:55;7.75;;;4.90;;
51034;SDS011;37062;52.546;13.230;2023-07-02T10:31:24;9.57;;;5.38;;
51034;SDS011;37062;52.546;13.230;2023-07-02T10:33:53;9.20;;;5.45;;
51034;SDS011;37062;52.546;13.230;2023-07-02T10:36:21;9.63;;;5.43;;
51034;SDS011;37062;52.546;13.230;2023-07-02T10:38:51;8.73;;;5.40;;
51034;SDS011;37062;52.546;13.230;2023-07-02T10:41:22;9.25;;;5.22;;
51034;SDS011;37062;52.546;13.230;2023-07-02T10:43:53;9.10;;;5.45;;
51034;SDS011;37062;52.546;13.230;2023-07-02T10:46:32;8.45;;;4.95;;
51034;SDS011;37062;52.546;13.230;2023-07-02T10:49:00;10.60;;;5.22;;
51034;SDS011;37062;52.546;13.230;2023-07-02T10:51:29;12.75;;;5.70;;
51034;SDS011;37062;52.546;13.230;2023-07-02T10:53:57;9.25;;;5.10;;
51034;SDS011;37062;52.546;13.230;2023-07-02T10:56:26;9.35;;;5.22;;
51034;SDS011;37062;52.546;13.230;2023-07-02T10:58:56;10.82;;;6.07;;
51034;SDS011;37062;52.546;13.230;2023-07-02T11:01:25;10.45;;;5.60;;
51034;SDS011;37062;52.546;13.230;2023-07-02T11:03:55;13.65;;;5.75;;
51034;SDS011;37062;52.546;13.230;2023-07-02T11:06:25;10.85;;;5.43;;
51034;SDS011;37062;52.546;13.230;2023-07-02T11:08:54;12.27;;;6.10;;
51034;SDS011;37062;52.546;13.230;2023-07-02T11:11:23;11.38;;;5.75;;
51034;SDS011;37062;52.546;13.230;2023-07-02T11:13:52;8.95;;;5.32;;
51034;SDS011;37062;52.546;13.230;2023-07-02T11:16:23;10.70;;;5.50;;
51034;SDS011;37062;52.546;13.230;2023-07-02T11:18:53;16.92;;;6.85;;
51034;SDS011;37062;52.546;13.230;2023-07-02T11:21:22;9.82;;;6.05;;
51034;SDS011;37062;52.546;13.230;2023-07-02T11:23:51;15.70;;;5.85;;
51034;SDS011;37062;52.546;13.230;2023-07-02T11:26:34;11.20;;;5.72;;
51034;SDS011;37062;52.546;13.230;2023-07-02T11:29:03;9.98;;;5.57;;
51034;SDS011;37062;52.546;13.230;2023-07-02T11:31:37;10.68;;;6.32;;
51034;SDS011;37062;52.546;13.230;2023-07-02T11:34:11;8.75;;;5.68;;
51034;SDS011;37062;52.546;13.230;2023-07-02T11:36:39;13.93;;;5.88;;
51034;SDS011;37062;52.546;13.230;2023-07-02T11:39:08;13.50;;;6.25;;
51034;SDS011;37062;52.546;13.230;2023-07-02T11:41:36;14.02;;;6.05;;
51034;SDS011;37062;52.546;13.230;2023-07-02T11:44:05;14.55;;;6.55;;
51034;SDS011;37062;52.546;13.230;2023-07-02T11:46:33;11.05;;;5.85;;
51034;SDS011;37062;52.546;13.230;2023-07-02T11:49:03;13.20;;;5.63;;
51034;SDS011;37062;52.546;13.230;2023-07-02T11:51:35;14.05;;;5.80;;
51034;SDS011;37062;52.546;13.230;2023-07-02T11:54:03;9.75;;;5.75;;
51034;SDS011;37062;52.546;13.230;2023-07-02T11:56:31;9.45;;;5.63;;
51034;SDS011;37062;52.546;13.230;2023-07-02T11:59:00;11.25;;;6.28;;
51034;SDS011;37062;52.546;13.230;2023-07-02T12:01:30;14.38;;;5.97;;
51034;SDS011;37062;52.546;13.230;2023-07-02T12:03:59;10.20;;;5.80;;
51034;SDS011;37062;52.546;13.230;2023-07-02T12:06:29;11.15;;;6.00;;
51034;SDS011;37062;52.546;13.230;2023-07-02T12:08:57;11.18;;;5.85;;
51034;SDS011;37062;52.546;13.230;2023-07-02T12:11:25;8.00;;;5.38;;
51034;SDS011;37062;52.546;13.230;2023-07-02T12:13:53;13.60;;;5.93;;
51034;SDS011;37062;52.546;13.230;2023-07-02T12:16:22;22.42;;;6.53;;
51034;SDS011;37062;52.546;13.230;2023-07-02T12:18:50;12.40;;;6.50;;
51034;SDS011;37062;52.546;13.230;2023-07-02T12:21:18;11.02;;;5.80;;
51034;SDS011;37062;52.546;13.230;2023-07-02T12:23:48;18.67;;;5.63;;
51034;SDS011;37062;52.546;13.230;2023-07-02T12:26:16;11.90;;;6.10;;
51034;SDS011;37062;52.546;13.230;2023-07-02T12:28:45;9.10;;;5.38;;
51034;SDS011;37062;52.546;13.230;2023-07-02T12:31:13;12.70;;;5.65;;
51034;SDS011;37062;52.546;13.230;2023-07-02T12:33:41;10.25;;;5.35;;
51034;SDS011;37062;52.546;13.230;2023-07-02T12:36:09;9.10;;;5.75;;
51034;SDS011;37062;52.546;13.230;2023-07-02T12:38:38;19.38;;;6.22;;
51034;SDS011;37062;52.546;13.230;2023-07-02T12:41:08;9.68;;;5.82;;
51034;SDS011;37062;52.546;13.230;2023-07-02T12:43:36;12.02;;;6.57;;
51034;SDS011;37062;52.546;13.230;2023-07-02T12:46:05;9.48;;;6.15;;
51034;SDS011;37062;52.546;13.230;2023-07-02T12:48:34;10.80;;;6.38;;
51034;SDS011;37062;52.546;13.230;2023-07-02T12:51:02;14.07;;;6.72;;
51034;SDS011;37062;52.546;13.230;2023-07-02T12:53:30;10.05;;;6.38;;
51034;SDS011;37062;52.546;13.230;2023-07-02T12:55:58;13.75;;;6.28;;
51034;SDS011;37062;52.546;13.230;2023-07-02T12:58:28;12.15;;;6.35;;
51034;SDS011;37062;52.546;13.230;2023-07-02T13:00:56;14.32;;;6.38;;
51034;SDS011;37062;52.546;13.230;2023-07-02T13:03:25;11.20;;;6.43;;
51034;SDS011;37062;52.546;13.230;2023-07-02T13:05:53;11.70;;;6.38;;
51034;SDS011;37062;52.546;13.230;2023-07-02T13:08:21;11.18;;;6.07;;
51034;SDS011;37062;52.546;13.230;2023-07-02T13:10:49;11.48;;;6.22;;
51034;SDS011;37062;52.546;13.230;2023-07-02T13:13:18;12.63;;;6.03;;
51034;SDS011;37062;52.546;13.230;2023-07-02T13:15:51;12.48;;;6.53;;
51034;SDS011;37062;52.546;13.230;2023-07-02T13:18:19;10.45;;;6.10;;
51034;SDS011;37062;52.546;13.230;2023-07-02T13:20:47;8.23;;;5.55;;
51034;SDS011;37062;52.546;13.230;2023-07-02T13:23:15;9.75;;;5.63;;
51034;SDS011;37062;52.546;13.230;2023-07-02T13:25:44;11.48;;;5.95;;
51034;SDS011;37062;52.546;13.230;2023-07-02T13:28:12;17.45;;;6.53;;
51034;SDS011;37062;52.546;13.230;2023-07-02T13:30:41;12.98;;;6.50;;
51034;SDS011;37062;52.546;13.230;2023-07-02T13:33:10;11.65;;;6.15;;
51034;SDS011;37062;52.546;13.230;2023-07-02T13:35:38;17.15;;;6.78;;
51034;SDS011;37062;52.546;13.230;2023-07-02T13:38:07;10.98;;;6.28;;
51034;SDS011;37062;52.546;13.230;2023-07-02T13:40:35;14.07;;;6.53;;
51034;SDS011;37062;52.546;13.230;2023-07-02T13:43:04;18.58;;;6.25;;
51034;SDS011;37062;52.546;13.230;2023-07-02T13:45:32;10.85;;;6.32;;
51034;SDS011;37062;52.546;13.230;2023-07-02T13:48:00;10.90;;;6.25;;
51034;SDS011;37062;52.546;13.230;2023-07-02T13:50:30;12.07;;;6.88;;
51034;SDS011;37062;52.546;13.230;2023-07-02T13:52:58;14.05;;;6.72;;
51034;SDS011;37062;52.546;13.230;2023-07-02T13:55:27;11.05;;;6.72;;
51034;SDS011;37062;52.546;13.230;2023-07-02T13:57:56;8.35;;;5.78;;
51034;SDS011;37062;52.546;13.230;2023-07-02T14:00:28;13.82;;;6.47;;
51034;SDS011;37062;52.546;13.230;2023-07-02T14:02:56;13.32;;;6.55;;
51034;SDS011;37062;52.546;13.230;2023-07-02T14:05:25;10.90;;;6.13;;
51034;SDS011;37062;52.546;13.230;2023-07-02T14:07:53;11.05;;;6.28;;
51034;SDS011;37062;52.546;13.230;2023-07-02T14:10:21;13.70;;;6.88;;
51034;SDS011;37062;52.546;13.230;2023-07-02T14:12:50;14.35;;;6.30;;
51034;SDS011;37062;52.546;13.230;2023-07-02T14:15:18;13.95;;;5.82;;
51034;SDS011;37062;52.546;13.230;2023-07-02T14:17:48;13.25;;;5.70;;
51034;SDS011;37062;52.546;13.230;2023-07-02T14:20:16;9.50;;;5.43;;
51034;SDS011;37062;52.546;13.230;2023-07-02T14:22:45;12.55;;;6.20;;
51034;SDS011;37062;52.546;13.230;2023-07-02T14:25:14;11.77;;;6.30;;
51034;SDS011;37062;52.546;13.230;2023-07-02T14:28:01;9.48;;;5.40;;
51034;SDS011;37062;52.546;13.230;2023-07-02T14:30:30;10.00;;;5.43;;
51034;SDS011;37062;52.546;13.230;2023-07-02T14:32:59;14.98;;;6.03;;
51034;SDS011;37062;52.546;13.230;2023-07-02T14:35:27;13.95;;;6.10;;
51034;SDS011;37062;52.546;13.230;2023-07-02T14:37:57;9.75;;;5.30;;
51034;SDS011;37062;52.546;13.230;2023-07-02T14:40:25;9.13;;;5.10;;
51034;SDS011;37062;52.546;13.230;2023-07-02T14:42:54;10.85;;;5.80;;